createdAt,value
2019-02-04T00:00:45.016Z,37.03
2019-02-04T00:03:11.382Z,37.13
2019-02-04T00:05:37.908Z,37.14
2019-02-04T00:08:04.263Z,37.08
2019-02-04T00:10:30.608Z,37.21
2019-02-04T00:12:56.960Z,37.12
2019-02-04T00:15:23.297Z,37.17
2019-02-04T00:17:49.664Z,37.21
2019-02-04T00:20:16.048Z,37.25
2019-02-04T00:22:42.527Z,37.21
2019-02-04T00:25:08.958Z,37.19
2019-02-04T00:27:35.514Z,37.33
2019-02-04T00:30:01.860Z,37.25
2019-02-04T00:32:28.231Z,37.25
2019-02-04T00:34:54.706Z,37.32
2019-02-04T00:37:21.063Z,37.23
2019-02-04T00:39:47.399Z,37.14
2019-02-04T00:42:13.757Z,37.29
2019-02-04T00:44:40.094Z,37.13
2019-02-04T00:47:06.448Z,37.29
2019-02-04T00:49:32.805Z,37.31
2019-02-04T00:51:59.173Z,37.24
2019-02-04T00:54:25.582Z,37.25
2019-02-04T00:56:51.950Z,37.23
2019-02-04T00:59:18.313Z,37.28
2019-02-04T01:01:44.656Z,37.22
2019-02-04T01:04:11.002Z,37.34
2019-02-04T01:06:37.374Z,37.31
2019-02-04T01:09:03.830Z,37.11
2019-02-04T01:11:30.238Z,36.86
2019-02-04T01:13:56.534Z,36.56
2019-02-04T01:16:22.900Z,36.61
2019-02-04T01:18:49.262Z,36.38
2019-02-04T01:21:15.588Z,36.35
2019-02-04T01:23:41.980Z,36.21
2019-02-04T01:26:08.318Z,36.39
2019-02-04T01:28:34.670Z,36.22
2019-02-04T01:31:01.002Z,36.22
2019-02-04T01:33:27.361Z,36.10
2019-02-04T01:35:53.711Z,36.10
2019-02-04T01:38:20.042Z,36.00
2019-02-04T01:40:46.427Z,35.82
2019-02-04T01:43:12.768Z,36.03
2019-02-04T01:45:39.097Z,35.81
2019-02-04T01:48:05.448Z,35.95
2019-02-04T01:50:31.791Z,35.76
2019-02-04T01:52:58.113Z,35.74
2019-02-04T01:55:24.453Z,35.77
2019-02-04T01:57:50.794Z,35.63
2019-02-04T02:00:17.135Z,35.58
2019-02-04T02:02:43.601Z,35.61
2019-02-04T02:05:09.996Z,35.71
2019-02-04T02:07:36.328Z,35.51
2019-02-04T02:10:02.658Z,35.35
2019-02-04T02:12:28.998Z,35.29
2019-02-04T02:14:55.382Z,35.02
2019-02-04T02:17:26.407Z,34.90
2019-02-04T02:19:48.069Z,34.81
2019-02-04T02:22:14.448Z,34.75
2019-02-04T02:24:40.919Z,34.73
2019-02-04T02:27:07.190Z,34.81
2019-02-04T02:29:33.521Z,34.71
2019-02-04T02:31:59.917Z,34.64
2019-02-04T02:34:26.239Z,34.55
2019-02-04T02:36:52.583Z,34.54
2019-02-04T02:39:18.963Z,34.57
2019-02-04T02:41:45.292Z,34.50
2019-02-04T02:44:11.704Z,34.44
2019-02-04T02:46:37.976Z,34.38
2019-02-04T02:49:04.321Z,34.38
2019-02-04T02:51:30.645Z,34.34
2019-02-04T02:53:56.975Z,34.33
2019-02-04T02:56:23.315Z,34.26
2019-02-04T02:58:49.664Z,34.23
2019-02-04T03:01:16.010Z,34.20
2019-02-04T03:03:42.344Z,34.12
2019-02-04T03:06:08.737Z,34.11
2019-02-04T03:08:35.071Z,34.18
2019-02-04T03:11:01.417Z,34.16
2019-02-04T03:13:27.755Z,34.15
2019-02-04T03:15:54.196Z,34.16
2019-02-04T03:18:20.542Z,34.14
2019-02-04T03:20:46.862Z,34.11
2019-02-04T03:23:13.226Z,33.97
2019-02-04T03:25:39.554Z,34.04
2019-02-04T03:28:06.036Z,33.97
2019-02-04T03:30:32.364Z,33.98
2019-02-04T03:32:58.713Z,33.97
2019-02-04T03:35:25.021Z,33.85
2019-02-04T03:37:52.314Z,33.81
2019-02-04T03:40:17.849Z,33.79
2019-02-04T03:42:44.176Z,33.79
2019-02-04T03:45:10.610Z,33.75
2019-02-04T03:47:36.940Z,33.79
2019-02-04T03:50:03.258Z,33.76
2019-02-04T03:52:29.590Z,33.90
2019-02-04T03:54:55.929Z,33.78
2019-02-04T03:57:22.271Z,33.89
2019-02-04T03:59:48.645Z,33.77
2019-02-04T04:02:15.000Z,33.69
2019-02-04T04:04:41.335Z,33.52
2019-02-04T04:07:07.667Z,33.44
2019-02-04T04:09:34.068Z,33.36
2019-02-04T04:12:00.323Z,33.39
2019-02-04T04:14:26.647Z,33.33
2019-02-04T04:16:53.049Z,33.20
2019-02-04T04:19:19.364Z,33.32
2019-02-04T04:21:45.720Z,33.42
2019-02-04T04:24:12.104Z,33.48
2019-02-04T04:26:38.455Z,33.64
2019-02-04T04:29:04.850Z,33.67
2019-02-04T04:31:31.145Z,33.43
2019-02-04T04:33:57.472Z,33.38
2019-02-04T04:36:23.834Z,33.26
2019-02-04T04:38:50.138Z,33.29
2019-02-04T04:41:16.478Z,33.32
2019-02-04T04:43:42.832Z,33.26
2019-02-04T04:46:09.149Z,33.09
2019-02-04T04:48:35.477Z,33.06
2019-02-04T04:51:01.868Z,33.20
2019-02-04T04:53:28.255Z,33.30
2019-02-04T04:55:54.611Z,33.53
2019-02-04T04:58:20.946Z,33.47
2019-02-04T05:00:47.315Z,33.44
2019-02-04T05:03:13.665Z,33.38
2019-02-04T05:05:40.113Z,33.29
2019-02-04T05:08:06.527Z,33.27
2019-02-04T05:10:32.859Z,33.21
2019-02-04T05:12:59.187Z,33.13
2019-02-04T05:15:25.556Z,33.15
2019-02-04T05:17:52.705Z,33.13
2019-02-04T05:20:18.314Z,33.15
2019-02-04T05:22:44.658Z,33.00
2019-02-04T05:25:10.982Z,32.94
2019-02-04T05:27:37.335Z,32.90
2019-02-04T05:30:03.705Z,32.83
2019-02-04T05:32:30.043Z,32.91
2019-02-04T05:34:57.507Z,32.88
2019-02-04T05:37:22.731Z,32.91
2019-02-04T05:39:49.125Z,32.90
2019-02-04T05:42:15.513Z,32.88
2019-02-04T05:44:41.849Z,32.72
2019-02-04T05:47:08.353Z,32.88
2019-02-04T05:49:34.775Z,32.66
2019-02-04T05:52:01.104Z,32.66
2019-02-04T05:54:27.505Z,32.83
2019-02-04T05:56:53.894Z,33.06
2019-02-04T05:59:20.239Z,32.78
2019-02-04T06:01:46.577Z,33.13
2019-02-04T06:04:12.968Z,33.01
2019-02-04T06:06:39.362Z,33.05
2019-02-04T06:09:05.699Z,33.04
2019-02-04T06:11:32.082Z,33.36
2019-02-04T06:13:58.399Z,33.26
2019-02-04T06:16:24.743Z,33.42
2019-02-04T06:19:00.530Z,32.97
2019-02-04T06:21:17.420Z,32.88
2019-02-04T06:23:43.821Z,33.00
2019-02-04T06:26:10.192Z,32.88
2019-02-04T06:28:36.522Z,32.87
2019-02-04T06:31:02.924Z,32.66
2019-02-04T06:33:29.341Z,32.79
2019-02-04T06:35:55.670Z,32.91
2019-02-04T06:38:22.016Z,33.34
2019-02-04T06:40:48.386Z,33.87
2019-02-04T06:43:14.705Z,33.21
2019-02-04T06:45:41.057Z,33.05
2019-02-04T06:48:07.427Z,33.22
2019-02-04T06:50:33.800Z,33.30
2019-02-04T06:53:00.131Z,32.33
2019-02-04T06:55:26.461Z,32.89
2019-02-04T06:57:52.794Z,32.36
2019-02-04T07:00:19.129Z,33.33
2019-02-04T07:02:45.491Z,32.86
2019-02-04T07:05:11.805Z,32.81
2019-02-04T07:07:38.206Z,32.60
2019-02-04T07:10:04.579Z,32.52
2019-02-04T07:12:30.928Z,32.49
2019-02-04T07:14:57.248Z,33.12
2019-02-04T07:17:23.718Z,32.91
2019-02-04T07:19:50.113Z,32.67
2019-02-04T07:22:16.540Z,32.44
2019-02-04T07:24:43.252Z,32.83
2019-02-04T07:27:09.279Z,32.70
2019-02-04T07:29:35.710Z,32.56
2019-02-04T07:32:02.060Z,32.40
2019-02-04T07:34:28.464Z,32.46
2019-02-04T07:36:54.870Z,32.04
2019-02-04T07:39:21.194Z,32.71
2019-02-04T07:41:47.532Z,32.56
2019-02-04T07:44:13.900Z,32.66
2019-02-04T07:46:40.389Z,32.23
2019-02-04T07:49:07.991Z,32.49
2019-02-04T07:51:33.106Z,33.18
2019-02-04T07:53:59.497Z,32.97
2019-02-04T07:56:25.830Z,32.62
2019-02-04T07:58:52.171Z,32.94
2019-02-04T08:01:18.518Z,33.03
2019-02-04T08:03:44.868Z,32.44
2019-02-04T08:06:11.245Z,32.79
2019-02-04T08:08:37.585Z,32.78
2019-02-04T08:11:04.070Z,32.86
2019-02-04T08:13:30.404Z,32.87
2019-02-04T08:15:56.788Z,32.46
2019-02-04T08:18:23.813Z,32.19
2019-02-04T08:20:50.240Z,32.00
2019-02-04T08:23:16.569Z,32.46
2019-02-04T08:25:42.922Z,32.15
2019-02-04T08:28:09.432Z,32.95
2019-02-04T08:30:37.931Z,32.35
2019-02-04T08:33:03.283Z,33.04
2019-02-04T08:35:29.652Z,32.45
2019-02-04T08:37:56.008Z,31.91
2019-02-04T08:40:22.358Z,32.69
2019-02-04T08:42:48.701Z,32.75
2019-02-04T08:45:15.184Z,32.27
2019-02-04T08:47:41.611Z,31.95
2019-02-04T08:50:10.091Z,32.27
2019-02-04T08:52:36.560Z,33.30
2019-02-04T08:55:02.949Z,33.11
2019-02-04T08:57:29.313Z,33.07
2019-02-04T08:59:55.698Z,32.56
2019-02-04T09:02:22.149Z,32.33
2019-02-04T09:04:48.501Z,32.09
2019-02-04T09:07:14.845Z,32.16
2019-02-04T09:09:41.212Z,32.46
2019-02-04T09:12:07.872Z,31.93
2019-02-04T09:14:34.283Z,31.97
2019-02-04T09:17:00.672Z,31.59
2019-02-04T09:19:27.038Z,31.88
2019-02-04T09:21:53.376Z,32.50
2019-02-04T09:24:19.737Z,32.11
2019-02-04T09:26:46.075Z,32.00
2019-02-04T09:29:12.426Z,32.05
2019-02-04T09:31:38.788Z,32.31
2019-02-04T09:34:05.191Z,31.98
2019-02-04T09:36:31.665Z,32.69
2019-02-04T09:38:58.189Z,31.91
2019-02-04T09:41:24.547Z,32.07
2019-02-04T09:43:50.923Z,32.00
2019-02-04T09:46:17.306Z,31.72
2019-02-04T09:48:43.747Z,31.59
2019-02-04T09:51:10.147Z,32.23
2019-02-04T09:53:36.489Z,31.83
2019-02-04T09:56:02.880Z,31.62
2019-02-04T09:58:29.310Z,31.78
2019-02-04T10:00:55.672Z,31.91
2019-02-04T10:03:22.089Z,31.72
2019-02-04T10:05:48.444Z,31.91
2019-02-04T10:08:14.855Z,31.74
2019-02-04T10:10:41.284Z,31.45
2019-02-04T10:13:07.632Z,31.50
2019-02-04T10:15:34.152Z,31.22
2019-02-04T10:18:00.570Z,31.18
2019-02-04T10:20:34.127Z,31.33
2019-02-04T10:22:53.292Z,31.11
2019-02-04T10:25:19.660Z,31.04
2019-02-04T10:27:46.068Z,31.02
2019-02-04T10:30:12.430Z,31.01
2019-02-04T10:32:38.752Z,30.95
2019-02-04T10:35:16.406Z,31.14
2019-02-04T10:37:31.606Z,31.07
2019-02-04T10:39:57.915Z,31.17
2019-02-04T10:42:24.322Z,31.03
2019-02-04T10:44:50.828Z,31.01
2019-02-04T10:47:17.132Z,30.79
2019-02-04T10:49:43.446Z,30.59
2019-02-04T10:52:09.839Z,30.65
2019-02-04T10:54:36.210Z,30.95
2019-02-04T10:57:02.631Z,30.53
2019-02-04T10:59:29.902Z,30.60
2019-02-04T11:01:55.302Z,30.46
2019-02-04T11:04:21.677Z,30.91
2019-02-04T11:06:48.063Z,30.49
2019-02-04T11:09:14.480Z,30.70
2019-02-04T11:11:40.771Z,30.75
2019-02-04T11:14:07.101Z,31.61
2019-02-04T11:16:33.487Z,31.73
2019-02-04T11:18:59.885Z,31.45
2019-02-04T11:21:26.250Z,31.27
2019-02-04T11:23:52.750Z,31.46
2019-02-04T11:26:19.116Z,31.41
2019-02-04T11:28:45.497Z,31.33
2019-02-04T11:31:12.045Z,32.03
2019-02-04T11:33:38.415Z,30.98
2019-02-04T11:36:04.766Z,31.11
2019-02-04T11:38:31.208Z,31.27
2019-02-04T11:40:57.650Z,31.40
2019-02-04T11:43:24.037Z,31.41
2019-02-04T11:45:50.402Z,31.04
2019-02-04T11:48:16.794Z,31.30
2019-02-04T11:50:43.286Z,31.19
2019-02-04T11:53:09.700Z,31.50
2019-02-04T11:55:36.253Z,31.33
2019-02-04T11:58:02.617Z,31.20
2019-02-04T12:00:29.114Z,32.65
2019-02-04T12:02:55.507Z,32.22
2019-02-04T12:05:21.848Z,32.14
2019-02-04T12:07:48.280Z,32.31
2019-02-04T12:10:14.684Z,32.37
2019-02-04T12:12:41.047Z,32.19
2019-02-04T12:15:07.389Z,32.20
2019-02-04T12:17:33.752Z,32.27
2019-02-04T12:20:00.325Z,32.27
2019-02-04T12:22:26.542Z,32.34
2019-02-04T12:24:52.927Z,32.29
2019-02-04T12:27:19.362Z,32.35
2019-02-04T12:29:45.738Z,32.65
2019-02-04T12:32:12.090Z,32.45
2019-02-04T12:34:38.549Z,32.39
2019-02-04T12:37:05.126Z,32.33
2019-02-04T12:39:31.353Z,32.81
2019-02-04T12:41:57.719Z,32.56
2019-02-04T12:44:24.185Z,33.23
2019-02-04T12:46:52.683Z,32.68
2019-02-04T12:49:20.072Z,33.04
2019-02-04T12:51:45.511Z,33.95
2019-02-04T12:54:12.019Z,33.64
2019-02-04T12:56:38.390Z,32.78
2019-02-04T12:59:04.746Z,33.79
2019-02-04T13:01:31.155Z,32.82
2019-02-04T13:03:57.614Z,33.24
2019-02-04T13:06:23.962Z,33.30
2019-02-04T13:08:50.322Z,33.39
2019-02-04T13:11:16.654Z,33.20
2019-02-04T13:13:43.065Z,33.06
2019-02-04T13:16:09.473Z,33.07
2019-02-04T13:18:35.992Z,33.26
2019-02-04T13:21:02.361Z,33.19
2019-02-04T13:23:30.082Z,33.22
2019-02-04T13:25:56.439Z,33.42
2019-02-04T13:28:22.811Z,33.09
2019-02-04T13:30:49.160Z,33.06
2019-02-04T13:33:15.543Z,33.24
2019-02-04T13:35:41.907Z,33.17
2019-02-04T13:38:08.257Z,33.26
2019-02-04T13:40:34.618Z,33.23
2019-02-04T13:43:01.141Z,33.30
2019-02-04T13:45:27.571Z,33.40
2019-02-04T13:47:53.922Z,33.26
2019-02-04T13:50:20.331Z,33.36
2019-02-04T13:52:46.732Z,33.20
2019-02-04T13:55:13.196Z,33.52
2019-02-04T13:57:40.787Z,33.65
2019-02-04T14:00:05.886Z,33.66
2019-02-04T14:02:32.270Z,33.39
2019-02-04T14:04:58.737Z,33.58
2019-02-04T14:07:25.148Z,33.59
2019-02-04T14:09:51.557Z,33.40
2019-02-04T14:12:17.881Z,33.44
2019-02-04T14:14:44.541Z,33.31
2019-02-04T14:17:10.988Z,33.30
2019-02-04T14:19:37.384Z,33.51
2019-02-04T14:22:09.453Z,33.55
2019-02-04T14:24:30.126Z,33.55
2019-02-04T14:26:56.516Z,33.55
2019-02-04T14:29:22.923Z,33.63
2019-02-04T14:31:49.284Z,33.71
2019-02-04T14:34:15.706Z,33.61
2019-02-04T14:36:42.186Z,33.68
2019-02-04T14:39:08.513Z,33.67
2019-02-04T14:41:34.926Z,33.81
2019-02-04T14:44:01.438Z,33.73
2019-02-04T14:46:27.809Z,33.55
2019-02-04T14:48:54.183Z,33.56
2019-02-04T14:51:20.683Z,33.49
2019-02-04T14:53:46.977Z,33.52
2019-02-04T14:56:13.411Z,33.68
2019-02-04T14:58:39.844Z,33.67
2019-02-04T15:01:06.348Z,33.60
2019-02-04T15:03:32.746Z,33.75
2019-02-04T15:05:59.152Z,33.80
2019-02-04T15:08:33.000Z,33.48
2019-02-04T15:10:51.919Z,33.49
2019-02-04T15:13:18.460Z,33.40
2019-02-04T15:15:44.787Z,33.52
2019-02-04T15:18:11.070Z,33.19
2019-02-04T15:20:37.477Z,33.52
2019-02-04T15:23:03.877Z,33.01
2019-02-04T15:25:30.243Z,33.44
2019-02-04T15:27:56.571Z,33.25
2019-02-04T15:30:23.001Z,32.97
2019-02-04T15:32:49.364Z,33.00
2019-02-04T15:35:15.843Z,33.01
2019-02-04T15:37:42.215Z,32.94
2019-02-04T15:40:08.635Z,33.06
2019-02-04T15:42:34.956Z,32.86
2019-02-04T15:45:01.304Z,32.91
2019-02-04T15:47:27.684Z,33.68
2019-02-04T15:49:54.064Z,33.28
2019-02-04T15:52:20.425Z,33.31
2019-02-04T15:54:47.015Z,33.23
2019-02-04T15:57:13.372Z,32.99
2019-02-04T15:59:39.758Z,33.10
2019-02-04T16:02:06.126Z,33.63
2019-02-04T16:04:32.491Z,33.18
2019-02-04T16:06:58.834Z,32.88
2019-02-04T16:09:25.226Z,32.94
2019-02-04T16:11:53.561Z,33.23
2019-02-04T16:14:19.893Z,33.03
2019-02-04T16:16:46.177Z,33.07
2019-02-04T16:19:12.557Z,33.17
2019-02-04T16:21:39.029Z,32.80
2019-02-04T16:24:05.401Z,33.80
2019-02-04T16:26:31.817Z,32.97
2019-02-04T16:28:58.149Z,32.97
2019-02-04T16:31:24.499Z,32.91
2019-02-04T16:33:50.845Z,32.87
2019-02-04T16:36:17.202Z,32.94
2019-02-04T16:38:43.542Z,32.79
2019-02-04T16:41:09.919Z,33.09
2019-02-04T16:43:36.269Z,32.94
2019-02-04T16:46:02.661Z,33.00
2019-02-04T16:48:29.015Z,32.84
2019-02-04T16:51:10.561Z,32.80
2019-02-04T16:53:21.736Z,32.96
2019-02-04T16:55:48.131Z,32.92
2019-02-04T16:58:14.472Z,32.84
2019-02-04T17:00:40.815Z,33.04
2019-02-04T17:03:07.164Z,32.91
2019-02-04T17:05:33.498Z,33.04
2019-02-04T17:07:59.864Z,32.99
2019-02-04T17:10:26.179Z,33.01
2019-02-04T17:12:52.578Z,33.01
2019-02-04T17:15:19.082Z,32.90
2019-02-04T17:17:45.424Z,32.79
2019-02-04T17:20:11.799Z,32.85
2019-02-04T17:22:38.261Z,32.91
2019-02-04T17:25:04.500Z,32.82
2019-02-04T17:27:30.840Z,32.81
2019-02-04T17:29:57.230Z,32.93
2019-02-04T17:32:23.665Z,32.84
2019-02-04T17:34:50.018Z,32.81
2019-02-04T17:37:16.397Z,32.94
2019-02-04T17:39:42.679Z,32.81
2019-02-04T17:42:09.011Z,32.73
2019-02-04T17:44:35.415Z,32.91
2019-02-04T17:47:01.802Z,32.80
2019-02-04T17:49:28.151Z,32.70
2019-02-04T17:51:54.495Z,32.65
2019-02-04T17:54:20.825Z,32.71
2019-02-04T17:56:47.206Z,32.64
2019-02-04T17:59:13.515Z,32.75
2019-02-04T18:01:39.858Z,32.72
2019-02-04T18:04:06.248Z,32.75
2019-02-04T18:06:32.631Z,32.79
2019-02-04T18:08:58.910Z,32.77
2019-02-04T18:11:25.240Z,32.73
2019-02-04T18:13:51.564Z,32.83
2019-02-04T18:16:17.975Z,32.94
2019-02-04T18:18:44.334Z,33.04
2019-02-04T18:21:10.715Z,33.03
2019-02-04T18:23:45.547Z,33.07
2019-02-04T18:26:03.376Z,33.08
2019-02-04T18:28:29.747Z,33.17
2019-02-04T18:30:56.131Z,33.38
2019-02-04T18:33:22.463Z,33.46
2019-02-04T18:35:48.865Z,33.55
2019-02-04T18:38:15.207Z,33.42
2019-02-04T18:40:41.570Z,33.48
2019-02-04T18:43:07.944Z,33.51
2019-02-04T18:45:34.353Z,33.52
2019-02-04T18:48:00.604Z,33.61
2019-02-04T18:50:26.938Z,33.61
2019-02-04T18:52:53.279Z,33.67
2019-02-04T18:55:19.720Z,33.57
2019-02-04T18:57:46.059Z,33.61
2019-02-04T19:00:12.476Z,33.69
2019-02-04T19:02:38.823Z,33.70
2019-02-04T19:05:05.157Z,33.70
2019-02-04T19:07:31.537Z,33.71
2019-02-04T19:09:57.958Z,33.63
2019-02-04T19:12:24.271Z,33.72
2019-02-04T19:14:50.660Z,33.79
2019-02-04T19:17:16.990Z,33.80
2019-02-04T19:19:43.326Z,33.77
2019-02-04T19:22:09.665Z,33.81
2019-02-04T19:24:36.026Z,33.74
2019-02-04T19:27:02.455Z,33.92
2019-02-04T19:29:28.859Z,33.87
2019-02-04T19:31:55.240Z,33.89
2019-02-04T19:34:21.589Z,33.90
2019-02-04T19:36:47.927Z,33.96
2019-02-04T19:39:14.344Z,33.93
2019-02-04T19:41:40.708Z,33.86
2019-02-04T19:44:07.078Z,33.88
2019-02-04T19:46:33.344Z,34.02
2019-02-04T19:48:59.684Z,33.94
2019-02-04T19:51:26.015Z,33.99
2019-02-04T19:53:52.346Z,33.97
2019-02-04T19:56:18.716Z,33.91
2019-02-04T19:58:45.093Z,34.02
2019-02-04T20:01:11.401Z,34.13
2019-02-04T20:03:37.761Z,33.94
2019-02-04T20:06:04.094Z,34.00
2019-02-04T20:08:30.415Z,33.91
2019-02-04T20:10:56.784Z,33.92
2019-02-04T20:13:23.108Z,34.12
2019-02-04T20:15:49.445Z,34.16
2019-02-04T20:18:15.827Z,34.16
2019-02-04T20:20:42.656Z,34.16
2019-02-04T20:23:08.520Z,34.10
2019-02-04T20:25:34.853Z,34.08
2019-02-04T20:28:01.231Z,34.16
2019-02-04T20:30:27.609Z,34.13
2019-02-04T20:32:53.986Z,34.17
2019-02-04T20:35:20.307Z,34.17
2019-02-04T20:37:46.649Z,34.16
2019-02-04T20:40:12.985Z,34.13
2019-02-04T20:42:39.320Z,34.12
2019-02-04T20:45:05.670Z,34.16
2019-02-04T20:47:32.049Z,34.20
2019-02-04T20:49:58.377Z,34.21
2019-02-04T20:52:24.703Z,34.33
2019-02-04T20:54:51.041Z,34.31
2019-02-04T20:57:17.375Z,34.10
2019-02-04T20:59:43.732Z,34.22
2019-02-04T21:02:10.063Z,34.24
2019-02-04T21:04:36.465Z,34.23
2019-02-04T21:07:02.890Z,34.28
2019-02-04T21:09:29.230Z,34.32
2019-02-04T21:11:55.593Z,34.13
2019-02-04T21:14:21.916Z,34.36
2019-02-04T21:16:48.296Z,34.26
2019-02-04T21:19:14.631Z,34.32
2019-02-04T21:21:40.953Z,34.32
2019-02-04T21:24:07.318Z,34.28
2019-02-04T21:26:33.668Z,34.22
2019-02-04T21:29:00.002Z,34.18
2019-02-04T21:31:26.329Z,34.23
2019-02-04T21:33:52.663Z,34.26
2019-02-04T21:36:18.996Z,34.23
2019-02-04T21:38:45.327Z,34.31
2019-02-04T21:41:11.657Z,34.23
2019-02-04T21:43:38.042Z,34.23
2019-02-04T21:46:04.385Z,34.24
2019-02-04T21:48:30.711Z,34.23
2019-02-04T21:50:57.108Z,34.11
2019-02-04T21:53:23.511Z,34.28
2019-02-04T21:55:49.826Z,34.21
2019-02-04T21:58:16.159Z,34.14
2019-02-04T22:00:42.509Z,34.32
2019-02-04T22:03:08.833Z,34.50
2019-02-04T22:05:35.175Z,34.62
2019-02-04T22:08:01.523Z,34.58
2019-02-04T22:10:27.875Z,34.66
2019-02-04T22:12:54.228Z,34.65
2019-02-04T22:15:20.566Z,34.55
2019-02-04T22:17:46.897Z,34.59
2019-02-04T22:20:13.253Z,34.76
2019-02-04T22:22:39.597Z,34.65
2019-02-04T22:25:05.931Z,34.62
2019-02-04T22:27:32.286Z,34.76
2019-02-04T22:29:58.617Z,34.58
2019-02-04T22:32:25.006Z,34.76
2019-02-04T22:34:51.442Z,34.78
2019-02-04T22:37:17.788Z,34.96
2019-02-04T22:39:44.127Z,34.90
2019-02-04T22:42:10.485Z,34.86
2019-02-04T22:44:36.814Z,34.85
2019-02-04T22:47:03.155Z,34.86
2019-02-04T22:49:29.527Z,34.96
2019-02-04T22:51:55.812Z,34.91
2019-02-04T22:54:22.189Z,34.94
2019-02-04T22:56:48.653Z,35.00
2019-02-04T22:59:14.974Z,34.94
2019-02-04T23:01:41.307Z,34.83
2019-02-04T23:04:07.665Z,35.03
2019-02-04T23:06:34.045Z,35.13
2019-02-04T23:09:00.375Z,35.06
2019-02-04T23:11:26.713Z,35.06
2019-02-04T23:13:53.034Z,35.10
2019-02-04T23:16:19.432Z,34.94
2019-02-04T23:18:45.764Z,35.05
2019-02-04T23:21:12.136Z,35.09
2019-02-04T23:23:38.497Z,35.10
2019-02-04T23:26:04.845Z,35.16
2019-02-04T23:28:31.118Z,35.15
2019-02-04T23:30:57.455Z,35.07
2019-02-04T23:33:33.928Z,35.03
2019-02-04T23:35:50.184Z,35.13
2019-02-04T23:38:16.516Z,35.19
2019-02-04T23:40:42.876Z,35.15
2019-02-04T23:43:09.208Z,35.23
2019-02-04T23:45:35.536Z,35.13
2019-02-04T23:48:01.863Z,35.00
2019-02-04T23:50:28.206Z,35.05
2019-02-04T23:52:54.565Z,35.15
2019-02-04T23:55:20.854Z,35.07
2019-02-04T23:57:47.188Z,35.05
